sensor_id;sensor_type;location;lat;lon;timestamp;pressure;altitude;pressure_sealevel;temperature;humidity
550;BME280;20066;48.764;9.176;2023-05-18T00:01:46;98845.84;;;10.93;58.81
550;BME280;20066;48.764;9.176;2023-05-18T00:04:14;98845.03;;;10.89;58.86
550;BME280;20066;48.764;9.176;2023-05-18T00:06:42;98847.34;;;10.87;57.55
550;BME280;20066;48.764;9.176;2023-05-18T00:09:10;98837.81;;;10.97;57.39
550;BME280;20066;48.764;9.176;2023-05-18T00:11:39;98834.53;;;10.43;59.25
550;BME280;20066;48.764;9.176;2023-05-18T00:14:07;98833.19;;;10.60;59.35
550;BME280;20066;48.764;9.176;2023-05-18T00:16:35;98832.66;;;10.81;58.45
550;BME280;20066;48.764;9.176;2023-05-18T00:19:03;98828.13;;;10.89;58.04
550;BME280;20066;48.764;9.176;2023-05-18T00:21:30;98824.97;;;10.83;57.75
550;BME280;20066;48.764;9.176;2023-05-18T00:23:59;98816.19;;;9.17;63.55
550;BME280;20066;48.764;9.176;2023-05-18T00:26:26;98818.88;;;9.93;62.07
550;BME280;20066;48.764;9.176;2023-05-18T00:28:55;98816.91;;;10.20;61.46
550;BME280;20066;48.764;9.176;2023-05-18T00:31:23;98811.25;;;10.58;59.40
550;BME280;20066;48.764;9.176;2023-05-18T00:33:51;98814.56;;;10.78;59.06
550;BME280;20066;48.764;9.176;2023-05-18T00:36:19;98807.19;;;10.38;59.19
550;BME280;20066;48.764;9.176;2023-05-18T00:38:47;98808.63;;;10.02;61.04
550;BME280;20066;48.764;9.176;2023-05-18T00:41:15;98809.41;;;10.02;61.05
550;BME280;20066;48.764;9.176;2023-05-18T00:43:42;98812.09;;;10.02;60.82
550;BME280;20066;48.764;9.176;2023-05-18T00:46:11;98818.38;;;10.14;60.04
550;BME280;20066;48.764;9.176;2023-05-18T00:48:39;98823.03;;;9.87;60.58
550;BME280;20066;48.764;9.176;2023-05-18T00:51:07;98823.31;;;9.82;60.98
550;BME280;20066;48.764;9.176;2023-05-18T00:53:35;98820.00;;;9.92;61.25
550;BME280;20066;48.764;9.176;2023-05-18T00:56:04;98825.19;;;9.28;62.72
550;BME280;20066;48.764;9.176;2023-05-18T00:58:31;98816.34;;;9.77;62.20
550;BME280;20066;48.764;9.176;2023-05-18T01:01:00;98813.09;;;9.91;60.59
550;BME280;20066;48.764;9.176;2023-05-18T01:03:29;98818.72;;;9.82;61.58
550;BME280;20066;48.764;9.176;2023-05-18T01:05:57;98811.50;;;10.16;60.65
550;BME280;20066;48.764;9.176;2023-05-18T01:08:26;98809.09;;;10.37;59.45
550;BME280;20066;48.764;9.176;2023-05-18T01:10:58;98822.28;;;10.20;60.05
550;BME280;20066;48.764;9.176;2023-05-18T01:13:34;98812.47;;;9.75;61.43
550;BME280;20066;48.764;9.176;2023-05-18T01:16:09;98816.97;;;10.23;60.58
550;BME280;20066;48.764;9.176;2023-05-18T01:18:44;98817.09;;;10.30;59.51
550;BME280;20066;48.764;9.176;2023-05-18T01:21:19;98817.41;;;10.25;60.00
550;BME280;20066;48.764;9.176;2023-05-18T01:24:05;98820.31;;;10.43;59.38
550;BME280;20066;48.764;9.176;2023-05-18T01:26:43;98822.59;;;10.41;58.96
550;BME280;20066;48.764;9.176;2023-05-18T01:29:12;98821.44;;;9.59;62.50
550;BME280;20066;48.764;9.176;2023-05-18T01:31:40;98814.13;;;9.83;61.43
550;BME280;20066;48.764;9.176;2023-05-18T01:34:08;98819.84;;;10.07;60.38
550;BME280;20066;48.764;9.176;2023-05-18T01:36:36;98816.28;;;10.26;60.01
550;BME280;20066;48.764;9.176;2023-05-18T01:39:04;98819.03;;;9.77;61.22
550;BME280;20066;48.764;9.176;2023-05-18T01:41:34;98808.38;;;9.58;62.81
550;BME280;20066;48.764;9.176;2023-05-18T01:44:10;98811.94;;;9.65;61.98
550;BME280;20066;48.764;9.176;2023-05-18T01:46:45;98810.03;;;9.92;61.59
550;BME280;20066;48.764;9.176;2023-05-18T01:49:32;98816.47;;;10.14;60.57
550;BME280;20066;48.764;9.176;2023-05-18T01:52:08;98815.84;;;9.94;61.48
550;BME280;20066;48.764;9.176;2023-05-18T01:54:40;98814.22;;;9.90;60.67
550;BME280;20066;48.764;9.176;2023-05-18T01:57:08;98811.78;;;10.07;60.63
550;BME280;20066;48.764;9.176;2023-05-18T01:59:38;98810.09;;;9.69;61.60
550;BME280;20066;48.764;9.176;2023-05-18T02:02:07;98814.03;;;10.05;60.34
550;BME280;20066;48.764;9.176;2023-05-18T02:04:35;98810.41;;;10.21;59.95
550;BME280;20066;48.764;9.176;2023-05-18T02:07:03;98808.13;;;9.93;60.72
550;BME280;20066;48.764;9.176;2023-05-18T02:09:31;98806.56;;;9.92;61.09
550;BME280;20066;48.764;9.176;2023-05-18T02:11:59;98805.38;;;9.89;61.39
550;BME280;20066;48.764;9.176;2023-05-18T02:14:27;98806.75;;;9.76;62.03
550;BME280;20066;48.764;9.176;2023-05-18T02:16:56;98804.94;;;9.35;61.85
550;BME280;20066;48.764;9.176;2023-05-18T02:19:23;98803.94;;;9.69;61.28
550;BME280;20066;48.764;9.176;2023-05-18T02:21:51;98800.84;;;9.93;61.33
550;BME280;20066;48.764;9.176;2023-05-18T02:24:19;98804.38;;;9.71;62.26
550;BME280;20066;48.764;9.176;2023-05-18T02:26:48;98798.56;;;9.69;62.42
550;BME280;20066;48.764;9.176;2023-05-18T02:29:17;98796.06;;;9.80;61.79
550;BME280;20066;48.764;9.176;2023-05-18T02:31:44;98793.94;;;9.96;61.05
550;BME280;20066;48.764;9.176;2023-05-18T02:34:14;98795.47;;;9.41;61.75
550;BME280;20066;48.764;9.176;2023-05-18T02:36:42;98785.91;;;9.17;62.86
550;BME280;20066;48.764;9.176;2023-05-18T02:39:11;98784.88;;;9.25;63.70
550;BME280;20066;48.764;9.176;2023-05-18T02:41:39;98784.53;;;9.53;62.50
550;BME280;20066;48.764;9.176;2023-05-18T02:44:07;98787.97;;;9.27;63.24
550;BME280;20066;48.764;9.176;2023-05-18T02:46:34;98787.03;;;9.16;62.35
550;BME280;20066;48.764;9.176;2023-05-18T02:49:02;98782.66;;;9.30;63.01
550;BME280;20066;48.764;9.176;2023-05-18T02:51:31;98787.03;;;9.16;63.31
550;BME280;20066;48.764;9.176;2023-05-18T02:53:59;98780.09;;;9.15;63.80
550;BME280;20066;48.764;9.176;2023-05-18T02:56:27;98782.34;;;9.13;63.09
550;BME280;20066;48.764;9.176;2023-05-18T02:58:54;98782.31;;;9.58;61.76
550;BME280;20066;48.764;9.176;2023-05-18T03:01:24;98781.34;;;9.70;61.46
550;BME280;20066;48.764;9.176;2023-05-18T03:03:52;98777.13;;;8.97;64.13
550;BME280;20066;48.764;9.176;2023-05-18T03:06:23;98791.03;;;9.25;63.57
550;BME280;20066;48.764;9.176;2023-05-18T03:08:53;98786.16;;;9.35;63.50
550;BME280;20066;48.764;9.176;2023-05-18T03:11:21;98788.59;;;9.43;63.03
550;BME280;20066;48.764;9.176;2023-05-18T03:13:49;98781.31;;;9.44;62.38
550;BME280;20066;48.764;9.176;2023-05-18T03:16:17;98784.81;;;8.99;63.04
550;BME280;20066;48.764;9.176;2023-05-18T03:18:45;98782.97;;;9.25;62.76
550;BME280;20066;48.764;9.176;2023-05-18T03:21:13;98775.84;;;9.37;61.48
550;BME280;20066;48.764;9.176;2023-05-18T03:23:40;98779.06;;;9.46;61.78
550;BME280;20066;48.764;9.176;2023-05-18T03:26:10;98777.31;;;8.85;62.75
550;BME280;20066;48.764;9.176;2023-05-18T03:28:38;98785.19;;;9.46;61.15
550;BME280;20066;48.764;9.176;2023-05-18T03:31:06;98781.81;;;9.26;61.93
550;BME280;20066;48.764;9.176;2023-05-18T03:33:33;98782.66;;;9.08;63.44
550;BME280;20066;48.764;9.176;2023-05-18T03:36:03;98783.44;;;9.31;63.28
550;BME280;20066;48.764;9.176;2023-05-18T03:38:31;98780.44;;;9.36;62.57
550;BME280;20066;48.764;9.176;2023-05-18T03:40:58;98781.34;;;8.75;63.62
550;BME280;20066;48.764;9.176;2023-05-18T03:43:27;98785.41;;;9.11;64.76
550;BME280;20066;48.764;9.176;2023-05-18T03:45:57;98783.53;;;9.38;63.41
550;BME280;20066;48.764;9.176;2023-05-18T03:48:26;98791.09;;;9.55;62.64
550;BME280;20066;48.764;9.176;2023-05-18T03:50:53;98786.47;;;9.29;63.17
550;BME280;20066;48.764;9.176;2023-05-18T03:53:21;98797.31;;;8.68;66.88
550;BME280;20066;48.764;9.176;2023-05-18T03:55:49;98795.41;;;8.91;66.33
550;BME280;20066;48.764;9.176;2023-05-18T03:58:17;98791.19;;;8.90;66.12
550;BME280;20066;48.764;9.176;2023-05-18T04:00:47;98793.41;;;9.08;65.23
550;BME280;20066;48.764;9.176;2023-05-18T04:03:15;98798.81;;;9.34;63.46
550;BME280;20066;48.764;9.176;2023-05-18T04:05:43;98800.59;;;9.26;63.64
550;BME280;20066;48.764;9.176;2023-05-18T04:08:11;98802.09;;;9.47;63.09
550;BME280;20066;48.764;9.176;2023-05-18T04:10:40;98806.03;;;9.30;62.31
550;BME280;20066;48.764;9.176;2023-05-18T04:13:08;98809.41;;;9.50;62.01
550;BME280;20066;48.764;9.176;2023-05-18T04:15:36;98816.53;;;8.35;65.75
550;BME280;20066;48.764;9.176;2023-05-18T04:18:05;98809.31;;;7.66;69.54
550;BME280;20066;48.764;9.176;2023-05-18T04:20:33;98807.00;;;7.64;69.52
550;BME280;20066;48.764;9.176;2023-05-18T04:23:03;98811.16;;;7.97;70.29
550;BME280;20066;48.764;9.176;2023-05-18T04:25:31;98820.00;;;8.55;67.99
550;BME280;20066;48.764;9.176;2023-05-18T04:28:00;98812.59;;;8.10;68.15
550;BME280;20066;48.764;9.176;2023-05-18T04:30:27;98822.34;;;8.37;67.25
550;BME280;20066;48.764;9.176;2023-05-18T04:32:55;98823.09;;;8.19;69.14
550;BME280;20066;48.764;9.176;2023-05-18T04:35:27;98822.25;;;8.14;68.48
550;BME280;20066;48.764;9.176;2023-05-18T04:37:57;98826.78;;;7.95;68.67
550;BME280;20066;48.764;9.176;2023-05-18T04:40:25;98820.81;;;7.66;71.17
550;BME280;20066;48.764;9.176;2023-05-18T04:42:53;98826.84;;;8.14;69.54
550;BME280;20066;48.764;9.176;2023-05-18T04:45:20;98828.34;;;8.31;69.62
550;BME280;20066;48.764;9.176;2023-05-18T04:47:51;98833.38;;;8.71;67.67
550;BME280;20066;48.764;9.176;2023-05-18T04:50:21;98829.94;;;8.93;67.09
550;BME280;20066;48.764;9.176;2023-05-18T04:52:51;98829.25;;;8.77;67.46
550;BME280;20066;48.764;9.176;2023-05-18T04:55:23;98826.53;;;9.19;65.78
550;BME280;20066;48.764;9.176;2023-05-18T04:57:54;98831.97;;;9.00;65.84
550;BME280;20066;48.764;9.176;2023-05-18T05:00:23;98834.09;;;8.90;67.52
550;BME280;20066;48.764;9.176;2023-05-18T05:02:52;98839.47;;;8.90;66.79
550;BME280;20066;48.764;9.176;2023-05-18T05:05:20;98832.13;;;8.30;68.75
550;BME280;20066;48.764;9.176;2023-05-18T05:07:48;98833.81;;;8.19;69.28
550;BME280;20066;48.764;9.176;2023-05-18T05:10:18;98834.84;;;8.68;67.78
550;BME280;20066;48.764;9.176;2023-05-18T05:12:47;98839.00;;;8.46;67.88
550;BME280;20066;48.764;9.176;2023-05-18T05:15:15;98843.22;;;8.86;66.96
550;BME280;20066;48.764;9.176;2023-05-18T05:17:45;98832.41;;;9.24;65.51
550;BME280;20066;48.764;9.176;2023-05-18T05:20:13;98836.09;;;9.39;64.51
550;BME280;20066;48.764;9.176;2023-05-18T05:22:41;98849.91;;;8.96;65.20
550;BME280;20066;48.764;9.176;2023-05-18T05:25:09;98832.56;;;9.35;64.55
550;BME280;20066;48.764;9.176;2023-05-18T05:27:39;98833.06;;;9.41;63.23
550;BME280;20066;48.764;9.176;2023-05-18T05:30:07;98832.81;;;9.76;63.52
550;BME280;20066;48.764;9.176;2023-05-18T05:32:35;98831.84;;;10.43;61.04
550;BME280;20066;48.764;9.176;2023-05-18T05:35:04;98827.44;;;10.28;60.73
550;BME280;20066;48.764;9.176;2023-05-18T05:37:33;98835.75;;;9.41;59.92
550;BME280;20066;48.764;9.176;2023-05-18T05:40:00;98840.13;;;10.01;59.38
550;BME280;20066;48.764;9.176;2023-05-18T05:42:31;98842.66;;;8.38;62.72
550;BME280;20066;48.764;9.176;2023-05-18T05:45:00;98845.19;;;8.89;61.93
550;BME280;20066;48.764;9.176;2023-05-18T05:47:28;98839.25;;;8.80;61.90
550;BME280;20066;48.764;9.176;2023-05-18T05:49:57;98839.06;;;9.11;61.13
550;BME280;20066;48.764;9.176;2023-05-18T05:52:25;98833.28;;;9.55;59.24
550;BME280;20066;48.764;9.176;2023-05-18T05:54:54;98837.16;;;9.35;59.79
550;BME280;20066;48.764;9.176;2023-05-18T05:57:22;98848.44;;;9.21;61.82
550;BME280;20066;48.764;9.176;2023-05-18T05:59:49;98833.44;;;9.92;59.55
550;BME280;20066;48.764;9.176;2023-05-18T06:02:19;98833.19;;;10.27;57.56
550;BME280;20066;48.764;9.176;2023-05-18T06:04:47;98832.44;;;9.51;59.64
550;BME280;20066;48.764;9.176;2023-05-18T06:07:14;98832.78;;;9.72;59.55
550;BME280;20066;48.764;9.176;2023-05-18T06:09:45;98838.13;;;10.55;57.20
550;BME280;20066;48.764;9.176;2023-05-18T06:12:13;98843.38;;;10.44;57.03
550;BME280;20066;48.764;9.176;2023-05-18T06:14:41;98837.63;;;10.19;56.99
550;BME280;20066;48.764;9.176;2023-05-18T06:17:09;98837.84;;;10.63;56.83
550;BME280;20066;48.764;9.176;2023-05-18T06:19:38;98827.72;;;10.53;55.34
550;BME280;20066;48.764;9.176;2023-05-18T06:22:06;98837.50;;;10.35;56.20
550;BME280;20066;48.764;9.176;2023-05-18T06:24:34;98838.94;;;10.25;56.84
550;BME280;20066;48.764;9.176;2023-05-18T06:27:03;98841.88;;;11.17;54.50
550;BME280;20066;48.764;9.176;2023-05-18T06:29:30;98843.53;;;10.25;55.53
550;BME280;20066;48.764;9.176;2023-05-18T06:31:58;98836.00;;;11.08;54.58
550;BME280;20066;48.764;9.176;2023-05-18T06:34:27;98836.22;;;11.77;53.29
550;BME280;20066;48.764;9.176;2023-05-18T06:36:56;98837.00;;;10.93;55.24
550;BME280;20066;48.764;9.176;2023-05-18T06:39:24;98833.56;;;11.84;53.37
550;BME280;20066;48.764;9.176;2023-05-18T06:41:52;98831.25;;;11.35;53.42
550;BME280;20066;48.764;9.176;2023-05-18T06:44:19;98836.97;;;11.74;52.74
550;BME280;20066;48.764;9.176;2023-05-18T06:46:47;98838.34;;;11.57;53.88
550;BME280;20066;48.764;9.176;2023-05-18T06:49:15;98838.75;;;10.41;55.53
550;BME280;20066;48.764;9.176;2023-05-18T06:51:43;98847.94;;;11.54;53.58
550;BME280;20066;48.764;9.176;2023-05-18T06:54:12;98831.38;;;11.49;54.06
550;BME280;20066;48.764;9.176;2023-05-18T06:56:40;98841.25;;;11.34;54.56
550;BME280;20066;48.764;9.176;2023-05-18T06:59:08;98833.34;;;11.59;53.38
550;BME280;20066;48.764;9.176;2023-05-18T07:01:36;98834.81;;;11.97;52.71
550;BME280;20066;48.764;9.176;2023-05-18T07:04:04;98834.13;;;12.11;52.56
550;BME280;20066;48.764;9.176;2023-05-18T07:06:32;98836.66;;;11.38;53.71
550;BME280;20066;48.764;9.176;2023-05-18T07:09:01;98834.28;;;11.77;53.40
550;BME280;20066;48.764;9.176;2023-05-18T07:11:30;98843.88;;;10.53;54.93
550;BME280;20066;48.764;9.176;2023-05-18T07:13:57;98842.75;;;11.72;51.87
550;BME280;20066;48.764;9.176;2023-05-18T07:16:25;98838.09;;;12.34;51.65
550;BME280;20066;48.764;9.176;2023-05-18T07:18:55;98836.91;;;12.32;51.28
550;BME280;20066;48.764;9.176;2023-05-18T07:21:23;98844.44;;;11.98;51.68
550;BME280;20066;48.764;9.176;2023-05-18T07:23:51;98838.47;;;12.33;50.43
550;BME280;20066;48.764;9.176;2023-05-18T07:26:19;98841.84;;;11.61;52.47
550;BME280;20066;48.764;9.176;2023-05-18T07:28:50;98842.09;;;12.72;50.87
550;BME280;20066;48.764;9.176;2023-05-18T07:31:18;98839.94;;;12.20;50.69
550;BME280;20066;48.764;9.176;2023-05-18T07:33:47;98843.00;;;13.19;49.77
550;BME280;20066;48.764;9.176;2023-05-18T07:36:15;98836.81;;;13.72;46.47
550;BME280;20066;48.764;9.176;2023-05-18T07:38:43;98840.50;;;14.56;44.69
550;BME280;20066;48.764;9.176;2023-05-18T07:41:11;98837.31;;;14.75;46.21
550;BME280;20066;48.764;9.176;2023-05-18T07:43:38;98828.66;;;13.93;48.37
550;BME280;20066;48.764;9.176;2023-05-18T07:46:08;98834.00;;;18.00;39.49
550;BME280;20066;48.764;9.176;2023-05-18T07:48:35;98825.97;;;16.62;42.57
550;BME280;20066;48.764;9.176;2023-05-18T07:51:06;98827.47;;;16.97;40.96
550;BME280;20066;48.764;9.176;2023-05-18T07:53:34;98824.09;;;19.21;35.70
550;BME280;20066;48.764;9.176;2023-05-18T07:56:03;98823.09;;;21.30;33.19
550;BME280;20066;48.764;9.176;2023-05-18T07:58:32;98818.88;;;17.29;40.15
550;BME280;20066;48.764;9.176;2023-05-18T08:01:00;98812.00;;;15.03;42.83
550;BME280;20066;48.764;9.176;2023-05-18T08:03:29;98822.75;;;16.44;41.28
550;BME280;20066;48.764;9.176;2023-05-18T08:05:57;98824.66;;;17.04;39.46
550;BME280;20066;48.764;9.176;2023-05-18T08:08:25;98829.56;;;17.40;38.22
550;BME280;20066;48.764;9.176;2023-05-18T08:10:54;98830.78;;;16.17;41.76
550;BME280;20066;48.764;9.176;2023-05-18T08:13:21;98810.78;;;15.08;44.06
550;BME280;20066;48.764;9.176;2023-05-18T08:15:49;98810.34;;;15.20;44.35
550;BME280;20066;48.764;9.176;2023-05-18T08:18:37;98821.94;;;18.21;38.42
550;BME280;20066;48.764;9.176;2023-05-18T08:21:05;98815.28;;;17.09;39.04
550;BME280;20066;48.764;9.176;2023-05-18T08:23:35;98818.66;;;18.09;39.50
550;BME280;20066;48.764;9.176;2023-05-18T08:26:03;98816.16;;;16.07;41.04
550;BME280;20066;48.764;9.176;2023-05-18T08:28:31;98816.88;;;17.03;39.56
550;BME280;20066;48.764;9.176;2023-05-18T08:30:59;98800.66;;;21.09;33.62
550;BME280;20066;48.764;9.176;2023-05-18T08:33:26;98808.91;;;19.04;35.55
550;BME280;20066;48.764;9.176;2023-05-18T08:35:56;98801.38;;;16.76;39.77
550;BME280;20066;48.764;9.176;2023-05-18T08:38:24;98800.03;;;15.49;42.57
550;BME280;20066;48.764;9.176;2023-05-18T08:40:57;98788.44;;;16.23;41.46
550;BME280;20066;48.764;9.176;2023-05-18T08:43:30;98797.44;;;16.50;40.58
550;BME280;20066;48.764;9.176;2023-05-18T08:46:04;98799.38;;;18.40;37.63
550;BME280;20066;48.764;9.176;2023-05-18T08:48:35;98798.41;;;17.67;37.10
550;BME280;20066;48.764;9.176;2023-05-18T08:51:07;98797.91;;;18.55;37.35
550;BME280;20066;48.764;9.176;2023-05-18T08:53:36;98787.97;;;15.12;42.30
550;BME280;20066;48.764;9.176;2023-05-18T08:56:06;98791.25;;;15.34;41.39
550;BME280;20066;48.764;9.176;2023-05-18T08:58:43;98790.63;;;15.16;41.85
550;BME280;20066;48.764;9.176;2023-05-18T09:01:12;98777.25;;;16.78;40.05
550;BME280;20066;48.764;9.176;2023-05-18T09:03:41;98785.38;;;19.58;34.82
550;BME280;20066;48.764;9.176;2023-05-18T09:06:10;98779.09;;;18.41;35.43
550;BME280;20066;48.764;9.176;2023-05-18T09:08:38;98787.28;;;19.13;33.84
550;BME280;20066;48.764;9.176;2023-05-18T09:11:07;98779.03;;;18.80;34.86
550;BME280;20066;48.764;9.176;2023-05-18T09:13:35;98778.84;;;21.78;30.97
550;BME280;20066;48.764;9.176;2023-05-18T09:16:03;98773.72;;;18.93;33.79
550;BME280;20066;48.764;9.176;2023-05-18T09:18:30;98781.72;;;18.64;33.49
550;BME280;20066;48.764;9.176;2023-05-18T09:20:58;98776.03;;;17.10;37.03
550;BME280;20066;48.764;9.176;2023-05-18T09:23:27;98783.34;;;19.79;32.58
550;BME280;20066;48.764;9.176;2023-05-18T09:25:55;98777.75;;;19.82;32.44
550;BME280;20066;48.764;9.176;2023-05-18T09:28:31;98777.44;;;18.47;35.81
550;BME280;20066;48.764;9.176;2023-05-18T09:30:59;98786.13;;;20.04;33.13
550;BME280;20066;48.764;9.176;2023-05-18T09:33:32;98784.84;;;17.41;35.80
550;BME280;20066;48.764;9.176;2023-05-18T09:36:01;98780.38;;;17.97;36.23
550;BME280;20066;48.764;9.176;2023-05-18T09:38:35;98776.91;;;15.78;39.13
550;BME280;20066;48.764;9.176;2023-05-18T09:41:08;98782.34;;;18.72;35.53
550;BME280;20066;48.764;9.176;2023-05-18T09:43:36;98775.69;;;21.67;30.01
550;BME280;20066;48.764;9.176;2023-05-18T09:46:05;98780.66;;;21.60;30.29
550;BME280;20066;48.764;9.176;2023-05-18T09:48:34;98777.59;;;19.57;32.16
550;BME280;20066;48.764;9.176;2023-05-18T09:51:03;98773.75;;;17.05;36.09
550;BME280;20066;48.764;9.176;2023-05-18T09:53:35;98773.72;;;18.93;34.19
550;BME280;20066;48.764;9.176;2023-05-18T09:56:04;98773.22;;;15.99;38.21
550;BME280;20066;48.764;9.176;2023-05-18T09:58:34;98774.44;;;17.59;36.16
550;BME280;20066;48.764;9.176;2023-05-18T10:01:02;98771.56;;;16.96;36.86
550;BME280;20066;48.764;9.176;2023-05-18T10:03:32;98764.19;;;18.09;35.86
550;BME280;20066;48.764;9.176;2023-05-18T10:06:03;98759.69;;;18.75;35.58
550;BME280;20066;48.764;9.176;2023-05-18T10:08:33;98760.50;;;18.39;33.17
550;BME280;20066;48.764;9.176;2023-05-18T10:11:02;98748.25;;;19.00;32.53
550;BME280;20066;48.764;9.176;2023-05-18T10:13:31;98757.25;;;17.42;35.04
550;BME280;20066;48.764;9.176;2023-05-18T10:16:01;98750.00;;;19.71;32.52
550;BME280;20066;48.764;9.176;2023-05-18T10:18:30;98746.50;;;19.71;32.93
550;BME280;20066;48.764;9.176;2023-05-18T10:20:59;98743.22;;;18.26;33.19
550;BME280;20066;48.764;9.176;2023-05-18T10:23:30;98744.66;;;19.19;32.75
550;BME280;20066;48.764;9.176;2023-05-18T10:25:58;98742.75;;;20.73;31.96
550;BME280;20066;48.764;9.176;2023-05-18T10:28:41;98738.31;;;19.54;32.66
550;BME280;20066;48.764;9.176;2023-05-18T10:31:09;98742.78;;;20.06;31.13
550;BME280;20066;48.764;9.176;2023-05-18T10:33:37;98744.06;;;22.32;28.02
550;BME280;20066;48.764;9.176;2023-05-18T10:36:06;98747.56;;;19.28;31.87
550;BME280;20066;48.764;9.176;2023-05-18T10:38:36;98752.72;;;20.92;31.04
550;BME280;20066;48.764;9.176;2023-05-18T10:41:05;98744.00;;;18.99;34.57
550;BME280;20066;48.764;9.176;2023-05-18T10:43:35;98725.63;;;21.20;30.30
550;BME280;20066;48.764;9.176;2023-05-18T10:46:04;98739.22;;;20.22;31.17
550;BME280;20066;48.764;9.176;2023-05-18T10:48:37;98724.06;;;19.63;31.90
550;BME280;20066;48.764;9.176;2023-05-18T10:51:06;98734.22;;;19.46;32.41
550;BME280;20066;48.764;9.176;2023-05-18T10:53:35;98739.38;;;20.69;29.40
550;BME280;20066;48.764;9.176;2023-05-18T10:56:03;98727.66;;;22.10;27.92
550;BME280;20066;48.764;9.176;2023-05-18T10:58:36;98737.41;;;21.76;28.64
550;BME280;20066;48.764;9.176;2023-05-18T11:01:08;98737.91;;;24.53;25.66
550;BME280;20066;48.764;9.176;2023-05-18T11:03:37;98730.47;;;21.63;28.53
550;BME280;20066;48.764;9.176;2023-05-18T11:06:10;98732.56;;;24.59;25.71
550;BME280;20066;48.764;9.176;2023-05-18T11:08:46;98740.34;;;23.91;25.40
550;BME280;20066;48.764;9.176;2023-05-18T11:11:15;98732.25;;;23.60;26.67
550;BME280;20066;48.764;9.176;2023-05-18T11:13:49;98733.81;;;18.83;31.21
550;BME280;20066;48.764;9.176;2023-05-18T11:16:18;98730.88;;;20.13;31.17
550;BME280;20066;48.764;9.176;2023-05-18T11:18:47;98726.66;;;22.25;28.01
550;BME280;20066;48.764;9.176;2023-05-18T11:21:18;98728.53;;;21.50;28.43
550;BME280;20066;48.764;9.176;2023-05-18T11:24:11;98723.81;;;25.26;23.87
550;BME280;20066;48.764;9.176;2023-05-18T11:26:40;98716.94;;;23.14;27.58
550;BME280;20066;48.764;9.176;2023-05-18T11:29:21;98713.19;;;21.97;27.38
550;BME280;20066;48.764;9.176;2023-05-18T11:31:51;98722.34;;;22.77;28.68
550;BME280;20066;48.764;9.176;2023-05-18T11:34:40;98732.81;;;21.73;28.29
550;BME280;20066;48.764;9.176;2023-05-18T11:37:14;98725.59;;;21.45;28.33
550;BME280;20066;48.764;9.176;2023-05-18T11:39:52;98719.78;;;21.08;29.12
550;BME280;20066;48.764;9.176;2023-05-18T11:42:30;98719.53;;;22.06;28.18
550;BME280;20066;48.764;9.176;2023-05-18T11:45:08;98705.34;;;24.94;24.24
550;BME280;20066;48.764;9.176;2023-05-18T11:47:38;98699.75;;;22.33;27.01
550;BME280;20066;48.764;9.176;2023-05-18T11:50:08;98709.72;;;20.42;29.53
550;BME280;20066;48.764;9.176;2023-05-18T11:52:47;98708.31;;;21.48;28.40
550;BME280;20066;48.764;9.176;2023-05-18T11:55:17;98702.25;;;22.80;26.21
550;BME280;20066;48.764;9.176;2023-05-18T11:57:47;98697.78;;;24.38;25.00
550;BME280;20066;48.764;9.176;2023-05-18T12:00:20;98695.16;;;21.08;28.21
550;BME280;20066;48.764;9.176;2023-05-18T12:02:48;98699.88;;;23.83;25.81
550;BME280;20066;48.764;9.176;2023-05-18T12:05:18;98697.22;;;22.97;25.68
550;BME280;20066;48.764;9.176;2023-05-18T12:07:51;98690.59;;;22.05;27.05
550;BME280;20066;48.764;9.176;2023-05-18T12:10:20;98693.00;;;22.25;27.84
550;BME280;20066;48.764;9.176;2023-05-18T12:12:51;98680.50;;;20.26;29.30
550;BME280;20066;48.764;9.176;2023-05-18T12:15:23;98688.78;;;19.97;29.89
550;BME280;20066;48.764;9.176;2023-05-18T12:17:51;98680.53;;;19.72;30.13
550;BME280;20066;48.764;9.176;2023-05-18T12:20:20;98675.41;;;21.13;29.30
550;BME280;20066;48.764;9.176;2023-05-18T12:22:49;98679.72;;;18.13;33.02
550;BME280;20066;48.764;9.176;2023-05-18T12:25:19;98668.56;;;19.66;30.85
550;BME280;20066;48.764;9.176;2023-05-18T12:27:47;98679.44;;;22.61;27.01
550;BME280;20066;48.764;9.176;2023-05-18T12:30:17;98686.66;;;20.94;28.31
550;BME280;20066;48.764;9.176;2023-05-18T12:32:48;98684.31;;;18.52;32.44
550;BME280;20066;48.764;9.176;2023-05-18T12:35:21;98675.34;;;19.90;31.44
550;BME280;20066;48.764;9.176;2023-05-18T12:37:50;98681.75;;;19.84;31.56
550;BME280;20066;48.764;9.176;2023-05-18T12:40:18;98686.22;;;24.67;25.33
550;BME280;20066;48.764;9.176;2023-05-18T12:42:53;98672.03;;;21.57;27.92
550;BME280;20066;48.764;9.176;2023-05-18T12:45:25;98677.03;;;21.58;27.65
550;BME280;20066;48.764;9.176;2023-05-18T12:47:54;98672.16;;;21.19;28.24
550;BME280;20066;48.764;9.176;2023-05-18T12:50:24;98660.97;;;23.20;26.41
550;BME280;20066;48.764;9.176;2023-05-18T12:52:53;98658.69;;;23.73;26.12
550;BME280;20066;48.764;9.176;2023-05-18T12:55:21;98663.94;;;19.79;30.97
550;BME280;20066;48.764;9.176;2023-05-18T12:57:58;98667.31;;;20.50;30.60
550;BME280;20066;48.764;9.176;2023-05-18T13:00:30;98663.25;;;20.42;30.36
550;BME280;20066;48.764;9.176;2023-05-18T13:03:05;98661.59;;;19.65;31.24
550;BME280;20066;48.764;9.176;2023-05-18T13:05:36;98657.75;;;19.79;31.70
550;BME280;20066;48.764;9.176;2023-05-18T13:08:04;98656.81;;;20.36;31.03
550;BME280;20066;48.764;9.176;2023-05-18T13:10:32;98654.72;;;23.01;27.93
550;BME280;20066;48.764;9.176;2023-05-18T13:13:00;98659.38;;;22.74;27.64
550;BME280;20066;48.764;9.176;2023-05-18T13:15:32;98656.78;;;24.16;25.72
550;BME280;20066;48.764;9.176;2023-05-18T13:18:02;98656.00;;;22.70;27.82
550;BME280;20066;48.764;9.176;2023-05-18T13:20:38;98661.81;;;22.01;27.38
550;BME280;20066;48.764;9.176;2023-05-18T13:23:08;98662.22;;;22.21;27.80
550;BME280;20066;48.764;9.176;2023-05-18T13:25:36;98669.97;;;21.48;28.76
550;BME280;20066;48.764;9.176;2023-05-18T13:28:05;98663.34;;;22.82;27.19
550;BME280;20066;48.764;9.176;2023-05-18T13:30:34;98654.78;;;25.06;25.00
550;BME280;20066;48.764;9.176;2023-05-18T13:33:03;98649.91;;;24.44;25.52
550;BME280;20066;48.764;9.176;2023-05-18T13:35:31;98651.97;;;23.11;26.29
550;BME280;20066;48.764;9.176;2023-05-18T13:38:01;98668.50;;;20.49;29.92